Time;durP1;ratioP1;P1;durP2;ratioP2;P2;SDS_P1;SDS_P2;PMS_P1;PMS_P2;Temp;Humidity;BMP_temperature;BMP_pressure;BME280_temperature;BME280_humidity;BME280_pressure;Samples;Min_cycle;Max_cycle;Signal;HPM_P1;HPM_P2
2023/08/15 00:02:25;;;;;;;7.57;4.40;;;18.00;99.90;;;;;;5125089;27;20109;-61
2023/08/15 00:04:50;;;;;;;4.95;3.60;;;18.00;99.90;;;;;;5103806;27;20074;-58
2023/08/15 00:07:16;;;;;;;7.07;3.70;;;17.90;99.90;;;;;;5124727;27;20130;-61
2023/08/15 00:09:42;;;;;;;6.93;4.28;;;17.90;99.90;;;;;;5122392;27;20128;-59
2023/08/15 00:12:10;;;;;;;4.53;3.97;;;17.90;99.90;;;;;;5107399;27;20133;-58
2023/08/15 00:14:36;;;;;;;4.88;3.72;;;17.90;99.90;;;;;;5123007;27;20055;-59
2023/08/15 00:17:01;;;;;;;6.00;3.97;;;17.80;99.90;;;;;;5121426;27;20092;-62
2023/08/15 00:19:31;;;;;;;4.53;3.20;;;17.80;99.90;;;;;;5122389;27;20050;-62
2023/08/15 00:21:56;;;;;;;4.93;3.60;;;17.70;99.90;;;;;;5120767;27;20039;-60
2023/08/15 00:24:22;;;;;;;4.88;3.70;;;17.70;99.90;;;;;;5123294;27;20072;-58
2023/08/15 00:26:48;;;;;;;6.28;4.05;;;17.70;99.90;;;;;;5120600;27;20884;-60
2023/08/15 00:29:13;;;;;;;6.55;3.55;;;17.70;99.90;;;;;;5123553;27;20054;-62
2023/08/15 00:31:39;;;;;;;5.32;3.00;;;17.60;99.90;;;;;;5120545;27;20063;-60
2023/08/15 00:34:05;;;;;;;5.57;2.92;;;17.60;99.90;;;;;;5104529;27;20051;-59
2023/08/15 00:36:30;;;;;;;6.22;3.60;;;17.50;99.90;;;;;;5122655;27;20470;-57
2023/08/15 00:39:01;;;;;;;6.63;4.00;;;17.50;99.90;;;;;;5120878;27;20059;-62
2023/08/15 00:41:31;;;;;;;4.90;3.45;;;17.40;99.90;;;;;;5104441;27;20504;-60
2023/08/15 00:43:58;;;;;;;3.83;3.53;;;17.40;99.90;;;;;;5120921;27;20401;-61
2023/08/15 00:48:52;;;;;;;4.50;3.67;;;17.30;99.90;;;;;;5118866;27;20132;-61
2023/08/15 00:51:19;;;;;;;6.65;3.70;;;17.30;99.90;;;;;;5122968;27;20058;-56
2023/08/15 00:53:45;;;;;;;7.10;3.95;;;17.30;99.90;;;;;;5119302;27;20146;-56
2023/08/15 00:56:14;;;;;;;3.80;3.33;;;17.30;99.90;;;;;;5122279;27;20139;-57
2023/08/15 00:58:41;;;;;;;7.07;3.88;;;17.70;99.90;;;;;;5098855;27;20235;-57
2023/08/15 01:01:11;;;;;;;5.65;3.90;;;17.30;99.90;;;;;;5120496;27;20055;-56
2023/08/15 01:03:38;;;;;;;6.47;4.25;;;17.30;99.90;;;;;;5120534;27;20130;-57
2023/08/15 01:06:04;;;;;;;6.43;4.20;;;17.20;99.90;;;;;;5122298;27;20107;-56
2023/08/15 01:08:31;;;;;;;6.30;4.50;;;17.20;99.90;;;;;;5086232;27;20055;-59
2023/08/15 01:10:56;;;;;;;4.22;3.78;;;17.20;99.90;;;;;;5120473;27;20098;-59
2023/08/15 01:13:31;;;;;;;4.40;3.95;;;17.30;99.90;;;;;;5122138;27;20145;-56
2023/08/15 01:15:58;;;;;;;7.05;3.38;;;17.20;99.90;;;;;;5118740;27;20138;-57
2023/08/15 01:20:55;;;;;;;3.45;2.60;;;17.20;99.90;;;;;;5120398;27;20074;-56
2023/08/15 01:23:31;;;;;;;5.95;3.00;;;17.20;99.90;;;;;;5118299;27;20190;-57
2023/08/15 01:25:56;;;;;;;6.45;3.25;;;17.20;99.90;;;;;;5119852;27;20059;-56
2023/08/15 01:28:22;;;;;;;4.40;3.35;;;17.20;99.90;;;;;;5102801;27;20051;-59
2023/08/15 01:31:02;;;;;;;4.43;2.85;;;17.20;99.90;;;;;;5100832;27;20055;-57
2023/08/15 01:34:06;;;;;;;4.85;3.10;;;17.10;99.90;;;;;;5118855;27;20082;-57
2023/08/15 01:36:39;;;;;;;5.38;4.38;;;17.10;99.90;;;;;;5117598;27;20469;-56
2023/08/15 01:39:07;;;;;;;5.25;3.70;;;17.10;99.90;;;;;;5121126;27;20069;-56
2023/08/15 01:41:36;;;;;;;7.60;3.83;;;17.10;99.90;;;;;;5120622;27;20055;-55
2023/08/15 01:44:03;;;;;;;6.15;4.38;;;17.00;99.90;;;;;;5119950;27;20055;-56
2023/08/15 01:46:32;;;;;;;8.02;3.88;;;17.10;99.90;;;;;;5121213;27;20051;-57
2023/08/15 01:48:59;;;;;;;6.30;3.85;;;17.10;99.90;;;;;;5119486;27;20078;-57
2023/08/15 01:51:25;;;;;;;7.07;4.40;;;17.00;99.90;;;;;;5117947;27;20066;-57
2023/08/15 01:53:51;;;;;;;5.70;4.85;;;17.10;99.90;;;;;;5118873;27;20051;-57
2023/08/15 01:56:17;;;;;;;9.80;6.70;;;17.00;99.90;;;;;;5103426;27;20070;-56
2023/08/15 01:58:42;;;;;;;7.82;5.82;;;17.00;99.90;;;;;;5119145;27;20047;-57
2023/08/15 02:01:08;;;;;;;6.85;5.38;;;17.00;99.90;;;;;;5120328;27;20062;-57
2023/08/15 02:03:34;;;;;;;9.05;5.88;;;17.00;99.90;;;;;;5119534;27;20066;-56
2023/08/15 02:05:59;;;;;;;6.50;5.53;;;17.00;99.90;;;;;;5118414;27;20116;-57
2023/08/15 02:08:25;;;;;;;8.70;6.68;;;17.00;99.90;;;;;;5120459;27;20054;-56
2023/08/15 02:10:51;;;;;;;7.18;5.70;;;17.00;99.90;;;;;;5116284;27;21362;-57
2023/08/15 02:13:17;;;;;;;7.40;6.30;;;17.00;99.90;;;;;;5099350;27;20051;-57
2023/08/15 02:15:44;;;;;;;10.25;6.72;;;17.00;99.90;;;;;;5097386;27;20279;-57
2023/08/15 02:18:10;;;;;;;9.38;6.80;;;17.00;99.90;;;;;;5100289;27;20093;-56
2023/08/15 02:20:37;;;;;;;16.45;7.72;;;17.00;99.90;;;;;;5099143;27;20075;-57
2023/08/15 02:23:03;;;;;;;9.55;6.47;;;16.90;99.90;;;;;;5091911;28;20059;-57
2023/08/15 02:25:32;;;;;;;8.05;6.38;;;17.00;99.90;;;;;;5117235;27;20050;-58
2023/08/15 02:27:58;;;;;;;13.27;7.50;;;16.90;99.90;;;;;;5091917;28;20055;-57
2023/08/15 02:30:24;;;;;;;11.15;7.10;;;17.00;99.90;;;;;;5118320;27;20055;-58
2023/08/15 02:32:49;;;;;;;13.30;7.07;;;16.90;99.90;;;;;;5100577;28;20086;-57
2023/08/15 02:35:15;;;;;;;9.65;7.38;;;16.90;99.90;;;;;;5122477;27;20051;-58
2023/08/15 02:37:41;;;;;;;9.93;8.05;;;17.00;99.90;;;;;;5119653;27;20557;-57
2023/08/15 02:40:09;;;;;;;12.45;7.75;;;16.90;99.90;;;;;;5118488;27;20108;-58
2023/08/15 02:42:35;;;;;;;8.88;7.47;;;16.90;99.90;;;;;;5104382;27;20462;-58
2023/08/15 02:45:01;;;;;;;10.05;6.75;;;16.90;99.90;;;;;;5121511;27;20561;-57
2023/08/15 02:47:26;;;;;;;8.07;7.15;;;16.90;99.90;;;;;;5122264;27;20104;-58
2023/08/15 02:49:52;;;;;;;8.82;7.40;;;16.90;99.90;;;;;;5119805;27;20112;-56
2023/08/15 02:52:18;;;;;;;9.27;6.80;;;16.80;99.90;;;;;;5104983;28;20051;-57
2023/08/15 02:54:43;;;;;;;8.57;6.55;;;16.90;99.90;;;;;;5119297;27;20058;-57
2023/08/15 02:57:09;;;;;;;8.20;6.75;;;16.80;99.90;;;;;;5121926;28;20063;-57
2023/08/15 02:59:36;;;;;;;11.88;7.03;;;16.90;99.90;;;;;;5120733;27;20057;-58
2023/08/15 03:02:02;;;;;;;9.95;7.25;;;16.90;99.90;;;;;;5101925;28;20494;-57
2023/08/15 03:04:31;;;;;;;11.40;7.50;;;16.90;99.90;;;;;;5121884;28;20138;-56
2023/08/15 03:06:57;;;;;;;7.13;6.43;;;16.90;99.90;;;;;;5120610;27;20160;-57
2023/08/15 03:09:22;;;;;;;8.07;7.10;;;16.90;99.90;;;;;;5070423;28;20133;-57
2023/08/15 03:11:48;;;;;;;8.93;6.97;;;17.00;99.90;;;;;;5118691;27;20492;-56
2023/08/15 03:14:14;;;;;;;10.00;7.97;;;16.90;99.90;;;;;;5122059;27;20640;-56
2023/08/15 03:16:39;;;;;;;10.40;7.63;;;16.90;99.90;;;;;;5119507;27;20059;-56
2023/08/15 03:19:05;;;;;;;10.55;7.45;;;17.00;99.90;;;;;;5122150;27;20051;-56
2023/08/15 03:21:31;;;;;;;10.93;7.80;;;16.90;99.90;;;;;;5120598;27;20059;-55
2023/08/15 03:23:56;;;;;;;9.98;7.25;;;17.00;99.90;;;;;;5103888;27;20055;-57
2023/08/15 03:26:22;;;;;;;13.00;9.32;;;17.00;99.90;;;;;;5125666;27;20142;-56
2023/08/15 03:28:52;;;;;;;10.90;9.18;;;17.00;99.90;;;;;;5104526;27;20070;-56
2023/08/15 03:31:17;;;;;;;16.70;8.95;;;17.10;99.90;;;;;;5107631;27;20059;-57
2023/08/15 03:33:43;;;;;;;14.27;10.02;;;17.10;99.90;;;;;;5104688;27;20078;-57
2023/08/15 03:36:09;;;;;;;16.15;10.10;;;17.20;99.90;;;;;;5125742;27;20039;-57
2023/08/15 03:38:34;;;;;;;13.10;11.65;;;17.20;99.90;;;;;;5088753;27;20465;-60
2023/08/15 03:41:05;;;;;;;11.82;9.48;;;17.20;99.90;;;;;;5124741;27;20086;-57
2023/08/15 03:43:35;;;;;;;16.30;11.32;;;17.20;99.90;;;;;;5121748;27;20054;-56
2023/08/15 03:46:02;;;;;;;13.95;11.95;;;17.30;99.90;;;;;;5123626;27;20063;-55
2023/08/15 03:48:32;;;;;;;11.57;9.73;;;17.30;99.90;;;;;;5125625;27;20051;-56
2023/08/15 03:50:59;;;;;;;17.00;10.82;;;17.40;99.90;;;;;;5123009;27;20077;-57
2023/08/15 03:53:26;;;;;;;16.52;10.23;;;17.50;99.90;;;;;;5064462;27;1202543;-57
2023/08/15 03:55:54;;;;;;;14.05;10.27;;;17.50;99.90;;;;;;5122356;27;20093;-56
2023/08/15 03:58:21;;;;;;;11.10;10.00;;;17.60;99.90;;;;;;5125087;27;20051;-56
2023/08/15 04:00:47;;;;;;;13.77;10.23;;;17.60;99.90;;;;;;5122547;27;20590;-57
2023/08/15 04:03:14;;;;;;;15.50;9.80;;;17.60;99.90;;;;;;5106958;27;20059;-56
2023/08/15 04:05:42;;;;;;;13.77;10.15;;;17.60;99.90;;;;;;5122814;27;20127;-55
2023/08/15 04:08:08;;;;;;;12.68;10.27;;;17.50;99.90;;;;;;5125399;27;20047;-56
2023/08/15 04:10:39;;;;;;;11.43;9.32;;;17.60;99.90;;;;;;5123887;27;20784;-56
2023/08/15 04:13:06;;;;;;;14.73;9.73;;;17.50;99.90;;;;;;5124067;27;20051;-56
2023/08/15 04:15:33;;;;;;;11.75;9.02;;;17.50;99.90;;;;;;5123698;27;20062;-55
2023/08/15 04:17:59;;;;;;;10.40;8.75;;;17.50;99.90;;;;;;5101148;27;20153;-56
2023/08/15 04:20:25;;;;;;;13.65;9.07;;;17.60;99.90;;;;;;5124219;27;20090;-56
2023/08/15 04:22:50;;;;;;;12.02;9.18;;;17.60;99.90;;;;;;5122271;27;20043;-56
2023/08/15 04:25:16;;;;;;;22.00;10.63;;;17.60;99.90;;;;;;5124186;27;20528;-56
2023/08/15 04:27:42;;;;;;;13.10;9.27;;;17.60;99.90;;;;;;5103392;27;20818;-57
2023/08/15 04:30:08;;;;;;;10.70;9.30;;;17.60;99.90;;;;;;5104848;27;20479;-56
2023/08/15 04:32:34;;;;;;;11.90;8.57;;;17.70;99.90;;;;;;5122700;27;20457;-56
2023/08/15 04:35:00;;;;;;;10.20;8.32;;;17.70;99.90;;;;;;5122171;27;20759;-56
2023/08/15 04:37:25;;;;;;;15.75;9.98;;;17.70;99.90;;;;;;5124117;27;20079;-56
2023/08/15 04:39:51;;;;;;;11.23;8.20;;;17.70;99.90;;;;;;5121138;27;20156;-57
2023/08/15 04:42:17;;;;;;;11.88;9.25;;;17.80;99.90;;;;;;5120746;27;20054;-56
2023/08/15 04:44:42;;;;;;;9.20;7.78;;;17.80;99.90;;;;;;5121424;27;20108;-56
2023/08/15 04:47:08;;;;;;;9.25;8.27;;;17.80;99.90;;;;;;5124250;27;20065;-57
2023/08/15 04:49:33;;;;;;;11.93;9.35;;;17.80;99.90;;;;;;5123194;27;20479;-56
2023/08/15 04:52:00;;;;;;;9.48;8.48;;;17.80;99.90;;;;;;5122414;27;20055;-57
2023/08/15 04:54:26;;;;;;;9.18;8.23;;;17.80;99.90;;;;;;5123432;27;20062;-57
2023/08/15 04:56:52;;;;;;;13.48;8.88;;;17.90;99.90;;;;;;5121089;27;20059;-57
2023/08/15 04:59:18;;;;;;;10.70;8.63;;;17.90;99.90;;;;;;5123699;27;20055;-56
2023/08/15 05:01:45;;;;;;;11.63;8.45;;;17.90;99.90;;;;;;5121408;27;20059;-57
2023/08/15 05:04:10;;;;;;;9.48;8.13;;;18.00;99.90;;;;;;5124030;27;20062;-56
2023/08/15 05:06:38;;;;;;;8.65;7.85;;;18.00;99.90;;;;;;5103235;27;20156;-57
2023/08/15 05:09:04;;;;;;;10.38;8.30;;;18.00;99.90;;;;;;5100826;28;20142;-56
2023/08/15 05:11:31;;;;;;;10.23;8.68;;;18.00;99.90;;;;;;5099903;28;21613;-56
2023/08/15 05:14:00;;;;;;;14.15;10.60;;;18.00;99.90;;;;;;5099322;27;20142;-56
2023/08/15 05:16:26;;;;;;;15.40;11.00;;;18.10;99.90;;;;;;5119661;27;20055;-56
2023/08/15 05:18:51;;;;;;;14.65;12.80;;;18.10;99.90;;;;;;5120780;27;20067;-55
2023/08/15 05:21:17;;;;;;;15.20;11.88;;;18.20;99.90;;;;;;5104298;27;20111;-56
2023/08/15 05:23:43;;;;;;;16.73;11.75;;;18.30;99.90;;;;;;5120523;27;20054;-56
2023/08/15 05:26:09;;;;;;;16.08;12.45;;;18.40;99.90;;;;;;5123128;27;20086;-56
2023/08/15 05:28:34;;;;;;;14.30;11.30;;;18.40;99.90;;;;;;5121382;27;20055;-56
2023/08/15 05:31:00;;;;;;;14.52;10.95;;;18.50;99.90;;;;;;5120020;27;20445;-55
2023/08/15 05:33:26;;;;;;;12.25;10.63;;;18.60;99.90;;;;;;5123387;27;20055;-56
2023/08/15 05:35:52;;;;;;;13.48;10.32;;;18.60;99.90;;;;;;5120885;27;20053;-56
2023/08/15 05:38:17;;;;;;;13.93;9.98;;;18.70;99.90;;;;;;5122569;27;20059;-56
2023/08/15 05:40:44;;;;;;;12.35;9.38;;;18.70;99.90;;;;;;5099678;27;20079;-57
2023/08/15 05:43:09;;;;;;;12.10;8.13;;;18.70;99.90;;;;;;5100331;27;20055;-57
2023/08/15 05:45:35;;;;;;;16.10;8.95;;;18.80;99.90;;;;;;5100643;28;20167;-57
2023/08/15 05:48:00;;;;;;;10.82;8.45;;;18.90;99.90;;;;;;5101703;27;20680;-57
2023/08/15 05:50:26;;;;;;;13.10;8.25;;;18.90;99.90;;;;;;5121182;27;20138;-58
2023/08/15 05:52:52;;;;;;;14.98;8.25;;;19.10;99.90;;;;;;5118374;27;20055;-60
2023/08/15 05:55:17;;;;;;;11.48;8.07;;;19.10;99.90;;;;;;5121536;27;20100;-58
2023/08/15 05:57:43;;;;;;;11.65;7.55;;;19.10;99.90;;;;;;5120031;27;20119;-58
2023/08/15 06:00:10;;;;;;;11.13;7.80;;;19.20;99.90;;;;;;5104174;27;20055;-59
2023/08/15 06:02:38;;;;;;;10.38;7.25;;;19.30;99.90;;;;;;5107293;27;20055;-57
2023/08/15 06:05:04;;;;;;;9.90;6.32;;;19.30;99.90;;;;;;5121295;27;20055;-59
2023/08/15 06:07:31;;;;;;;12.15;6.93;;;19.30;99.90;;;;;;5121278;27;20841;-62
2023/08/15 06:09:56;;;;;;;9.30;5.88;;;19.30;99.90;;;;;;5120626;27;20051;-61
2023/08/15 06:12:22;;;;;;;11.60;6.47;;;19.20;99.90;;;;;;5103102;27;20055;-63
2023/08/15 06:14:48;;;;;;;9.80;6.10;;;19.20;99.90;;;;;;5118895;27;20074;-61
2023/08/15 06:17:13;;;;;;;10.10;7.07;;;18.70;99.90;;;;;;5121293;27;20051;-63
2023/08/15 06:19:39;;;;;;;10.13;6.60;;;19.00;99.90;;;;;;5119363;27;20058;-62
2023/08/15 06:22:05;;;;;;;10.18;6.80;;;19.00;99.90;;;;;;5120613;27;20754;-62
2023/08/15 06:24:31;;;;;;;10.30;6.18;;;18.90;99.90;;;;;;5119056;27;20051;-61
2023/08/15 06:26:57;;;;;;;7.10;5.97;;;18.90;99.90;;;;;;5118369;27;20389;-58
2023/08/15 06:29:25;;;;;;;9.75;5.60;;;19.10;99.90;;;;;;5119787;27;20829;-56
2023/08/15 06:31:52;;;;;;;10.60;7.05;;;19.20;99.90;;;;;;5117501;27;20121;-56
2023/08/15 06:34:18;;;;;;;9.88;5.22;;;19.40;99.90;;;;;;5121445;27;20047;-57
2023/08/15 06:36:43;;;;;;;9.25;5.95;;;19.40;99.90;;;;;;5098381;27;20466;-58
2023/08/15 06:39:11;;;;;;;9.32;4.68;;;19.50;99.90;;;;;;5118000;27;20078;-59
2023/08/15 06:41:37;;;;;;;6.97;5.40;;;20.00;99.90;;;;;;5119742;27;20759;-57
2023/08/15 06:44:03;;;;;;;9.85;5.88;;;20.30;99.90;;;;;;5121942;27;20139;-58
2023/08/15 06:46:32;;;;;;;12.00;6.13;;;20.50;99.90;;;;;;5121958;27;20062;-57
2023/08/15 06:48:58;;;;;;;9.65;6.20;;;20.60;99.90;;;;;;5120147;27;20055;-57
2023/08/15 06:51:24;;;;;;;8.00;5.35;;;20.60;99.90;;;;;;5123088;27;20061;-57
2023/08/15 06:53:50;;;;;;;9.05;5.90;;;20.60;99.90;;;;;;5120815;27;20055;-55
2023/08/15 06:56:15;;;;;;;9.18;5.55;;;20.60;99.90;;;;;;5124234;27;20110;-56
2023/08/15 06:58:41;;;;;;;12.35;6.85;;;20.60;99.90;;;;;;5103403;27;20485;-56
2023/08/15 07:01:07;;;;;;;9.93;5.85;;;20.60;99.90;;;;;;5116133;27;20078;-56
2023/08/15 07:03:33;;;;;;;10.55;5.22;;;20.80;99.90;;;;;;5107601;27;20146;-57
2023/08/15 07:05:59;;;;;;;6.35;4.53;;;20.80;99.90;;;;;;5127093;27;20492;-57
2023/08/15 07:08:25;;;;;;;7.45;5.20;;;21.30;99.90;;;;;;5128871;27;20055;-57
2023/08/15 07:10:58;;;;;;;9.45;5.47;;;21.50;99.90;;;;;;5124907;27;20055;-57
2023/08/15 07:13:24;;;;;;;10.00;5.10;;;21.50;99.90;;;;;;5129879;27;20530;-56
2023/08/15 07:15:56;;;;;;;15.30;4.15;;;21.40;99.90;;;;;;5123189;27;20069;-56
2023/08/15 07:18:23;;;;;;;6.15;4.68;;;21.10;99.90;;;;;;5108977;27;20547;-56
2023/08/15 07:20:50;;;;;;;12.73;4.65;;;20.90;99.90;;;;;;5122147;27;20622;-59
2023/08/15 07:23:16;;;;;;;8.10;4.53;;;20.90;99.90;;;;;;5103304;27;20051;-57
2023/08/15 07:25:43;;;;;;;7.78;4.10;;;21.20;99.90;;;;;;5121984;27;20058;-56
2023/08/15 07:28:09;;;;;;;10.98;3.78;;;21.60;99.90;;;;;;5117497;27;20115;-56
2023/08/15 07:30:36;;;;;;;10.05;4.18;;;21.90;99.90;;;;;;5097834;27;20051;-56
2023/08/15 07:33:02;;;;;;;13.82;4.35;;;22.20;99.90;;;;;;5123626;27;20055;-61
2023/08/15 07:35:32;;;;;;;7.28;4.20;;;22.20;99.90;;;;;;5106219;27;20055;-56
2023/08/15 07:37:58;;;;;;;6.40;3.80;;;22.20;99.90;;;;;;5127562;27;20514;-57
2023/08/15 07:40:23;;;;;;;7.78;3.72;;;22.20;99.90;;;;;;5129448;27;20047;-56
2023/08/15 07:42:49;;;;;;;8.23;3.30;;;22.30;99.90;;;;;;5127222;27;20059;-56
2023/08/15 07:45:16;;;;;;;7.32;3.45;;;22.40;99.90;;;;;;5107191;27;20507;-56
2023/08/15 07:47:42;;;;;;;6.97;3.58;;;22.40;99.90;;;;;;5125021;27;20055;-56
2023/08/15 07:50:16;;;;;;;6.78;3.50;;;22.50;99.90;;;;;;5111469;27;20514;-56
2023/08/15 07:52:42;;;;;;;4.80;3.20;;;22.50;99.90;;;;;;5127025;27;20099;-57
2023/08/15 07:55:09;;;;;;;8.50;3.55;;;22.70;99.90;;;;;;5112304;27;20061;-56
2023/08/15 07:57:35;;;;;;;12.90;4.22;;;22.80;99.90;;;;;;5128469;27;20047;-56
2023/08/15 08:00:00;;;;;;;8.65;4.13;;;23.30;99.90;;;;;;5127266;27;20072;-57
2023/08/15 08:02:26;;;;;;;5.43;3.00;;;23.40;99.90;;;;;;5129446;27;20068;-56
2023/08/15 08:04:52;;;;;;;6.88;3.50;;;24.10;99.90;;;;;;5105619;27;20059;-56
2023/08/15 08:07:18;;;;;;;11.32;3.85;;;24.40;99.90;;;;;;5129495;27;20054;-56
2023/08/15 08:09:43;;;;;;;9.05;3.47;;;24.40;99.90;;;;;;5125293;27;20511;-56
2023/08/15 08:12:09;;;;;;;4.60;2.35;;;25.10;99.90;;;;;;5089756;27;1130396;-56
2023/08/15 08:14:35;;;;;;;6.82;2.60;;;25.40;99.90;;;;;;5127977;27;20055;-59
2023/08/15 08:17:01;;;;;;;5.00;2.03;;;25.20;99.90;;;;;;5129083;27;20051;-57
2023/08/15 08:19:26;;;;;;;4.20;2.25;;;25.50;99.90;;;;;;5129418;27;20051;-61
2023/08/15 08:21:53;;;;;;;5.85;2.30;;;25.40;99.90;;;;;;5125067;27;20055;-56
2023/08/15 08:24:19;;;;;;;8.15;2.42;;;25.80;99.90;;;;;;5127328;27;20091;-56
2023/08/15 08:26:44;;;;;;;5.95;1.60;;;25.00;99.90;;;;;;5121007;27;20568;-57
2023/08/15 08:29:11;;;;;;;3.80;2.03;;;24.60;99.90;;;;;;5126954;27;20089;-57
2023/08/15 08:31:39;;;;;;;6.00;2.20;;;24.30;99.90;;;;;;5125747;27;20051;-57
2023/08/15 08:34:13;;;;;;;9.52;2.20;;;24.20;99.90;;;;;;5125032;27;20108;-59
2023/08/15 08:36:42;;;;;;;6.00;1.88;;;24.00;99.90;;;;;;5124105;27;20089;-56
2023/08/15 08:39:08;;;;;;;5.82;2.20;;;24.00;99.90;;;;;;5126814;27;20449;-56
2023/08/15 08:41:38;;;;;;;4.75;1.65;;;24.20;99.90;;;;;;5110057;27;20051;-57
2023/08/15 08:44:04;;;;;;;5.57;1.80;;;24.60;99.90;;;;;;5126817;27;20538;-57
2023/08/15 08:46:33;;;;;;;2.85;1.45;;;24.80;99.90;;;;;;5128100;27;20501;-57
2023/08/15 08:49:00;;;;;;;5.60;2.83;;;25.40;99.90;;;;;;5126398;27;20058;-65
2023/08/15 08:51:27;;;;;;;8.43;1.73;;;25.60;99.90;;;;;;5124289;27;20074;-66
2023/08/15 08:53:53;;;;;;;10.60;2.20;;;25.60;99.90;;;;;;5123303;27;20065;-57
2023/08/15 08:56:22;;;;;;;5.63;1.75;;;26.10;99.90;;;;;;5126654;27;20055;-60
2023/08/15 08:59:01;;;;;;;4.68;1.63;;;26.50;99.90;;;;;;5123710;27;20055;-61
2023/08/15 09:01:31;;;;;;;8.45;1.67;;;26.10;99.90;;;;;;5127474;27;20054;-56
2023/08/15 09:03:58;;;;;;;2.72;1.38;;;26.50;99.90;;;;;;5107220;27;20062;-57
2023/08/15 09:06:26;;;;;;;9.82;1.25;;;26.40;99.90;;;;;;5127641;27;20093;-57
2023/08/15 09:08:52;;;;;;;2.65;1.55;;;26.20;99.90;;;;;;5113957;27;20126;-58
2023/08/15 09:11:19;;;;;;;4.45;1.40;;;26.20;99.90;;;;;;5125499;27;20051;-57
2023/08/15 09:13:49;;;;;;;4.05;1.50;;;26.80;99.90;;;;;;5125794;27;20055;-58
2023/08/15 09:16:16;;;;;;;3.67;1.85;;;27.60;99.90;;;;;;5128309;27;20111;-58
2023/08/15 09:18:42;;;;;;;3.75;1.25;;;27.70;99.90;;;;;;5124592;27;20724;-58
2023/08/15 09:21:09;;;;;;;2.50;1.35;;;27.70;99.90;;;;;;5127028;27;20054;-58
2023/08/15 09:23:35;;;;;;;5.05;1.42;;;27.70;99.90;;;;;;5126530;27;20061;-57
2023/08/15 09:26:18;;;;;;;5.03;1.42;;;27.20;99.90;;;;;;5127234;27;20146;-58
2023/08/15 09:28:44;;;;;;;;;;;27.60;99.90;;;;;;5107264;27;20055;-58
2023/08/15 09:31:11;;;;;;;2.80;1.02;;;28.60;99.90;;;;;;5127115;27;19976;-58
2023/08/15 09:33:38;;;;;;;4.40;1.85;;;28.00;99.90;;;;;;5125459;27;20150;-58
2023/08/15 09:36:08;;;;;;;3.53;1.48;;;27.40;99.90;;;;;;5117701;27;20051;-57
2023/08/15 09:38:36;;;;;;;3.75;1.60;;;27.70;99.90;;;;;;5106665;27;20519;-64
2023/08/15 09:41:02;;;;;;;3.22;1.13;;;27.90;99.90;;;;;;5126940;27;20065;-57
2023/08/15 09:43:32;;;;;;;3.15;0.98;;;28.10;99.90;;;;;;5127092;27;20059;-64
2023/08/15 09:46:00;;;;;;;4.50;1.30;;;28.40;99.90;;;;;;5125707;27;20055;-57
2023/08/15 09:50:57;;;;;;;3.47;1.13;;;29.30;99.90;;;;;;5112371;27;20075;-58
2023/08/15 09:53:24;;;;;;;4.60;1.33;;;28.50;99.90;;;;;;5127533;27;20507;-59
2023/08/15 09:55:50;;;;;;;2.28;0.90;;;28.10;99.90;;;;;;5124812;27;20674;-57
2023/08/15 09:58:16;;;;;;;2.95;1.40;;;28.00;99.90;;;;;;5127588;27;20404;-59
2023/08/15 10:00:44;;;;;;;2.05;0.85;;;27.40;99.90;;;;;;5124597;27;20059;-59
2023/08/15 10:03:17;;;;;;;4.80;1.00;;;26.60;99.90;;;;;;5126977;27;20051;-57
2023/08/15 10:05:48;;;;;;;3.60;1.63;;;25.90;99.90;;;;;;5123576;27;20043;-56
2023/08/15 10:08:15;;;;;;;4.38;1.88;;;25.90;99.90;;;;;;5127120;27;20108;-58
2023/08/15 10:10:43;;;;;;;4.60;1.80;;;25.80;99.90;;;;;;5124433;27;20066;-62
2023/08/15 10:13:10;;;;;;;3.67;0.98;;;25.70;99.90;;;;;;5127022;27;20115;-60
2023/08/15 10:15:36;;;;;;;3.40;0.95;;;25.70;99.90;;;;;;5121938;27;20047;-57
2023/08/15 10:18:03;;;;;;;2.85;1.40;;;25.50;99.90;;;;;;5125268;27;20055;-57
2023/08/15 10:20:36;;;;;;;7.93;2.40;;;25.40;99.90;;;;;;5108564;27;20055;-57
2023/08/15 10:23:02;;;;;;;1.85;1.20;;;26.10;99.90;;;;;;5116631;27;20507;-56
2023/08/15 10:25:38;;;;;;;6.32;2.30;;;26.90;99.90;;;;;;5124961;27;20055;-57
2023/08/15 10:28:11;;;;;;;5.95;1.77;;;26.30;99.90;;;;;;5122655;27;20055;-57
2023/08/15 10:30:46;;;;;;;2.70;0.95;;;26.10;99.90;;;;;;5101121;27;20135;-56
2023/08/15 10:33:12;;;;;;;2.72;1.48;;;25.80;99.90;;;;;;5106140;27;20124;-57
2023/08/15 10:35:42;;;;;;;3.65;1.23;;;25.30;99.90;;;;;;5121696;27;20127;-57
2023/08/15 10:38:15;;;;;;;4.13;1.13;;;25.50;99.90;;;;;;5124731;27;20496;-56
2023/08/15 10:40:43;;;;;;;5.22;1.95;;;26.00;99.90;;;;;;5123952;27;20047;-56
2023/08/15 10:43:13;;;;;;;1.88;1.10;;;26.30;99.90;;;;;;5123348;27;20047;-57
2023/08/15 10:45:40;;;;;;;5.57;1.45;;;26.50;99.90;;;;;;5121551;27;20091;-61
2023/08/15 10:48:06;;;;;;;2.95;1.10;;;26.00;99.90;;;;;;5123390;27;20081;-63
2023/08/15 10:50:33;;;;;;;5.10;1.60;;;26.00;99.90;;;;;;5123040;27;20122;-61
2023/08/15 10:53:03;;;;;;;2.15;0.93;;;26.50;99.90;;;;;;5119663;27;20046;-57
2023/08/15 10:55:35;;;;;;;3.13;1.05;;;26.90;99.90;;;;;;5120295;27;20103;-57
2023/08/15 10:58:11;;;;;;;4.30;1.55;;;27.40;99.90;;;;;;5121694;27;20106;-57
2023/08/15 11:00:39;;;;;;;7.38;1.50;;;27.30;99.90;;;;;;5117918;27;20119;-56
2023/08/15 11:03:06;;;;;;;2.05;1.40;;;27.60;99.90;;;;;;5121672;27;20051;-56
2023/08/15 11:05:32;;;;;;;3.88;1.33;;;27.90;99.90;;;;;;5119482;27;20055;-56
2023/08/15 11:08:15;;;;;;;3.72;1.25;;;28.50;99.90;;;;;;5119221;27;20134;-57
2023/08/15 11:10:45;;;;;;;4.15;1.50;;;28.70;99.90;;;;;;5117719;27;20059;-57
2023/08/15 11:13:11;;;;;;;4.03;1.65;;;28.20;99.90;;;;;;5120785;27;20504;-56
2023/08/15 11:15:38;;;;;;;2.90;1.20;;;27.90;99.90;;;;;;5119778;27;20055;-56
2023/08/15 11:18:04;;;;;;;2.53;1.75;;;28.50;99.90;;;;;;5121830;27;20411;-58
2023/08/15 11:20:33;;;;;;;5.13;1.23;;;28.50;99.90;;;;;;5119979;27;20055;-57
2023/08/15 11:22:59;;;;;;;1.58;0.90;;;29.00;99.90;;;;;;5121315;27;20732;-57
2023/08/15 11:25:25;;;;;;;3.15;1.27;;;29.40;99.90;;;;;;5088747;28;20424;-65
2023/08/15 11:27:51;;;;;;;3.42;1.20;;;29.70;99.90;;;;;;5111929;27;20562;-58
2023/08/15 11:30:18;;;;;;;5.72;1.90;;;30.90;99.90;;;;;;5117578;28;20059;-58
2023/08/15 11:32:44;;;;;;;2.83;1.10;;;31.80;99.90;;;;;;5097259;28;20457;-57
2023/08/15 11:35:10;;;;;;;2.85;1.20;;;33.90;99.90;;;;;;5115457;28;20134;-57
2023/08/15 11:37:37;;;;;;;2.97;1.10;;;35.00;99.90;;;;;;5102689;27;20525;-58
2023/08/15 11:40:04;;;;;;;1.88;1.05;;;35.80;99.90;;;;;;5113896;27;20055;-58
2023/08/15 11:42:31;;;;;;;20.30;1.38;;;34.10;99.90;;;;;;5117057;27;20047;-58
2023/08/15 11:45:10;;;;;;;1.58;1.10;;;32.70;99.90;;;;;;5115026;27;20051;-57
2023/08/15 11:47:35;;;;;;;3.95;1.02;;;30.70;99.90;;;;;;5121063;27;20407;-57
2023/08/15 11:50:09;;;;;;;3.03;1.05;;;30.10;99.90;;;;;;5103697;27;20051;-57
2023/08/15 11:52:45;;;;;;;7.22;2.25;;;29.40;99.90;;;;;;5117572;27;20059;-57
2023/08/15 11:55:11;;;;;;;4.57;1.40;;;29.90;99.90;;;;;;5124060;27;20108;-57
2023/08/15 11:57:37;;;;;;;3.30;1.40;;;30.50;99.90;;;;;;5121130;27;20051;-57
2023/08/15 12:00:04;;;;;;;3.08;1.20;;;31.90;99.90;;;;;;5123466;27;20104;-58
2023/08/15 12:02:32;;;;;;;5.20;1.55;;;33.20;99.90;;;;;;5123872;27;20093;-57
2023/08/15 12:05:08;;;;;;;2.42;1.20;;;34.10;99.90;;;;;;5120957;27;20772;-58
2023/08/15 12:07:34;;;;;;;5.10;1.85;;;34.80;99.90;;;;;;5119798;27;20066;-57
2023/08/15 12:10:00;;;;;;;4.35;1.40;;;34.90;99.90;;;;;;5121814;27;20047;-58
2023/08/15 12:12:25;;;;;;;1.95;0.70;;;35.70;99.90;;;;;;5105309;27;20062;-59
2023/08/15 12:14:51;;;;;;;3.17;1.42;;;34.10;99.90;;;;;;5121516;27;20043;-57
2023/08/15 12:17:17;;;;;;;4.22;1.05;;;36.90;99.90;;;;;;5123991;27;20063;-58
2023/08/15 12:19:42;;;;;;;2.50;1.63;;;37.10;98.40;;;;;;5119623;27;20118;-57
2023/08/15 12:22:10;;;;;;;3.60;0.98;;;35.60;98.70;;;;;;5123833;27;20698;-56
2023/08/15 12:24:36;;;;;;;1.45;0.90;;;34.00;99.70;;;;;;5122850;27;20198;-57
2023/08/15 12:27:02;;;;;;;3.13;1.52;;;33.20;99.90;;;;;;5124156;27;20089;-57
2023/08/15 12:29:31;;;;;;;3.53;1.50;;;32.80;99.90;;;;;;5124405;27;20882;-57
2023/08/15 12:31:57;;;;;;;1.65;0.98;;;34.50;99.90;;;;;;5082965;27;1111563;-57
2023/08/15 12:34:23;;;;;;;4.63;1.75;;;37.00;99.30;;;;;;5105484;27;20095;-57
2023/08/15 12:36:48;;;;;;;3.60;1.70;;;36.50;98.20;;;;;;5102846;27;20162;-57
2023/08/15 12:39:16;;;;;;;2.40;1.17;;;36.30;99.00;;;;;;5123239;27;20382;-57
2023/08/15 12:41:42;;;;;;;1.67;1.17;;;37.20;98.20;;;;;;5102479;27;20479;-58
2023/08/15 12:44:08;;;;;;;2.40;1.45;;;38.80;98.50;;;;;;5119390;27;20141;-57
2023/08/15 12:46:33;;;;;;;2.65;0.80;;;36.10;97.90;;;;;;5122121;27;20070;-56
2023/08/15 12:49:02;;;;;;;1.52;0.93;;;35.70;97.00;;;;;;5122988;27;20055;-58
2023/08/15 12:51:31;;;;;;;1.92;0.90;;;34.90;97.90;;;;;;5123932;27;20051;-57